Toledo, Washington
Current Conditions -  °F | °C
As of 11:15 AM on Friday 21 Nov 2014 (Local Time) from KCLS Reporting Station
Broken Clouds Broken Clouds  
Wind Chill: 50°   Ceiling: 5500
Heat Index: 50°   Visibility: 10mi
Dew Point: 48°   Wind: 14mph
Humidity: 94%   Direction: 180°S
Pressure: 29.64"   Gusts: NA
Location:  46.44°N, 122.85°W
Report Text: KCLS 211915Z AUTO 18012KT 10SM FEW019 FEW050 BKN055 10/09 A2964 RMK AO2
Loading
Personal Weather Stations






























Interactive Weather Map New forecast layout! Learn more

10-Day Weather Forecast

Advertisements
Track Severe Weather on mobile